Time;durP1;ratioP1;P1;durP2;ratioP2;P2;SDS_P1;SDS_P2;PMS_P1;PMS_P2;Temp;Humidity;BMP_temperature;BMP_pressure;BME280_temperature;BME280_humidity;BME280_pressure;Samples;Min_cycle;Max_cycle;Signal;HPM_P1;HPM_P2
2022/12/10 09:30:42;;;;;;;3.17;1.17;;;;;;;16.34;32.81;99872.47;5128648;27;20482;-87
2022/12/10 09:33:07;;;;;;;2.15;1.13;;;;;;;16.43;32.57;99864.81;5111539;27;20027;-87
2022/12/10 09:35:40;;;;;;;3.63;0.93;;;;;;;16.52;32.38;99878.75;5122919;27;20365;-87
2022/12/10 09:38:06;;;;;;;1.75;1.08;;;;;;;16.56;32.26;99877.22;5079418;27;20045;-87
2022/12/10 09:40:44;;;;;;;3.05;1.15;;;;;;;16.53;32.17;99869.59;5086543;27;20031;-87
2022/12/10 09:43:38;;;;;;;4.03;1.20;;;;;;;16.58;32.29;99888.59;5076795;27;20035;-87
2022/12/10 09:46:10;;;;;;;1.40;1.10;;;;;;;16.59;32.22;99890.25;5114806;27;20027;-87
2022/12/10 09:48:56;;;;;;;1.48;1.00;;;;;;;16.62;32.13;99889.72;5076703;27;20023;-88
2022/12/10 09:51:25;;;;;;;2.17;1.00;;;;;;;16.59;31.95;99882.16;5086957;27;20023;-87
2022/12/10 09:53:58;;;;;;;1.70;0.90;;;;;;;16.66;32.15;99882.81;5099042;27;20519;-88
2022/12/10 09:56:30;;;;;;;2.88;0.95;;;;;;;16.69;32.28;99886.91;5102087;27;20505;-87
2022/12/10 09:58:56;;;;;;;3.45;1.00;;;;;;;16.71;32.16;99884.78;5101677;27;20067;-88
2022/12/10 10:01:25;;;;;;;1.58;1.00;;;;;;;16.63;32.12;99885.19;5080392;27;20026;-88
2022/12/10 10:03:51;;;;;;;3.55;0.90;;;;;;;16.65;32.09;99886.56;5111265;27;20128;-88
2022/12/10 10:06:17;;;;;;;2.90;1.05;;;;;;;16.65;32.13;99893.84;5089096;27;20529;-88
2022/12/10 10:08:42;;;;;;;2.72;0.98;;;;;;;16.66;32.30;99895.47;5077995;27;20022;-88
2022/12/10 10:11:16;;;;;;;1.10;0.90;;;;;;;16.59;32.22;99898.34;5110064;27;20041;-88
2022/12/10 10:13:51;;;;;;;1.65;0.90;;;;;;;16.58;32.32;99893.97;5079499;27;20019;-88
2022/12/10 10:16:21;;;;;;;2.28;0.80;;;;;;;16.62;32.07;99899.72;5104453;27;20066;-88
2022/12/10 10:19:11;;;;;;;1.02;0.80;;;;;;;16.64;32.17;99903.00;5089731;27;20068;-88
2022/12/10 10:21:44;;;;;;;3.03;0.90;;;;;;;16.73;31.94;99909.66;5107302;27;20127;-88
2022/12/10 10:24:13;;;;;;;2.42;0.90;;;;;;;16.61;32.25;99896.22;5088252;27;20792;-88
2022/12/10 10:26:39;;;;;;;1.30;1.00;;;;;;;16.64;32.30;99898.44;5095937;27;20076;-88
2022/12/10 10:29:07;;;;;;;1.17;0.90;;;;;;;16.67;32.20;99906.03;5084269;27;20055;-88
2022/12/10 10:31:33;;;;;;;1.23;0.90;;;;;;;16.61;32.35;99901.59;5069072;27;20023;-88
2022/12/10 10:34:01;;;;;;;1.77;1.00;;;;;;;16.61;32.30;99906.16;5089177;27;20506;-88
2022/12/10 10:36:34;;;;;;;3.63;0.90;;;;;;;16.65;32.47;99912.72;5087366;27;20663;-87
2022/12/10 10:39:15;;;;;;;1.40;0.87;;;;;;;16.58;32.57;99912.88;5097076;27;20323;-87
2022/12/10 10:41:41;;;;;;;1.15;0.88;;;;;;;16.68;32.50;99904.97;5092546;27;20436;-87
2022/12/10 10:44:14;;;;;;;1.65;1.10;;;;;;;16.61;32.40;99895.38;5069606;27;20492;-88
2022/12/10 10:46:40;;;;;;;2.10;1.20;;;;;;;16.62;32.52;99908.63;5073789;27;20084;-88
2022/12/10 10:49:22;;;;;;;1.52;1.00;;;;;;;16.69;32.46;99916.56;5081888;27;20187;-88
2022/12/10 10:51:48;;;;;;;1.42;0.90;;;;;;;16.63;32.53;99921.06;5090245;27;20432;-88
2022/12/10 10:54:32;;;;;;;1.30;0.80;;;;;;;16.71;32.38;99922.56;5094573;27;20038;-89
2022/12/10 10:56:58;;;;;;;;;;;;;;;16.74;32.15;99927.47;5124115;27;20027;-88
2022/12/10 10:59:30;;;;;;;2.05;0.90;;;;;;;16.72;32.42;99918.81;5104101;27;19924;-86
2022/12/10 11:02:13;;;;;;;1.40;0.70;;;;;;;16.65;32.39;99921.63;5088783;27;20071;-87
2022/12/10 11:04:47;;;;;;;0.75;0.70;;;;;;;16.67;32.42;99926.78;5105168;27;20094;-86
2022/12/10 11:07:30;;;;;;;1.35;1.00;;;;;;;16.63;32.29;99926.47;5085854;27;20452;-86
2022/12/10 11:09:55;;;;;;;1.58;0.95;;;;;;;16.60;32.58;99926.13;5095603;27;20024;-86
2022/12/10 11:12:29;;;;;;;1.25;0.95;;;;;;;16.62;32.61;99926.69;5087660;27;20027;-86
2022/12/10 11:14:55;;;;;;;0.95;0.85;;;;;;;16.62;32.29;99924.81;5078851;27;20549;-86
2022/12/10 11:17:22;;;;;;;0.98;0.80;;;;;;;16.63;32.53;99931.84;5086628;27;20031;-86
2022/12/10 11:20:09;;;;;;;1.00;0.80;;;;;;;16.62;32.27;99927.50;5073930;27;20266;-86
2022/12/10 11:22:35;;;;;;;1.33;0.80;;;;;;;16.66;32.48;99933.25;5086544;27;20062;-86
2022/12/10 11:25:00;;;;;;;1.17;0.90;;;;;;;16.66;32.56;99936.78;5086469;27;20053;-86
2022/12/10 11:27:37;;;;;;;0.77;0.77;;;;;;;16.62;32.65;99930.19;5081451;27;20036;-86
2022/12/10 11:30:14;;;;;;;2.15;0.88;;;;;;;16.62;32.43;99940.19;5065963;27;20043;-86
2022/12/10 11:32:43;;;;;;;2.33;0.90;;;;;;;16.65;32.64;99947.81;5083763;27;20037;-86
2022/12/10 11:35:14;;;;;;;0.73;0.73;;;;;;;16.65;32.54;99945.09;5097424;27;20024;-86
2022/12/10 11:37:43;;;;;;;2.00;0.80;;;;;;;16.67;32.57;99945.69;5083137;27;20117;-86
2022/12/10 11:40:20;;;;;;;1.48;0.80;;;;;;;16.65;32.64;99951.31;5114981;27;20570;-86
2022/12/10 11:43:17;;;;;;;0.93;0.70;;;;;;;16.59;32.76;99941.50;5094852;27;20027;-86
2022/12/10 11:46:01;;;;;;;0.88;0.60;;;;;;;16.68;32.81;99953.53;5067167;27;20451;-86
2022/12/10 11:48:29;;;;;;;0.73;0.73;;;;;;;16.63;32.81;99948.03;5078156;27;20046;-86
2022/12/10 11:51:16;;;;;;;0.60;0.60;;;;;;;16.62;32.88;99950.97;5092637;27;20050;-86
2022/12/10 11:53:52;;;;;;;1.42;0.90;;;;;;;16.61;32.88;99957.41;5114596;27;20023;-86
2022/12/10 11:56:37;;;;;;;0.85;0.75;;;;;;;16.63;32.90;99958.84;5083347;27;20482;-86
2022/12/10 11:59:16;;;;;;;1.38;0.80;;;;;;;16.62;32.95;99959.06;5075861;27;20139;-86
2022/12/10 12:01:45;;;;;;;0.85;0.82;;;;;;;16.64;32.89;99960.47;5086865;27;20130;-86
2022/12/10 12:04:48;;;;;;;0.75;0.70;;;;;;;16.61;32.82;99965.50;5095435;27;20294;-86
2022/12/10 12:07:32;;;;;;;1.90;0.70;;;;;;;16.63;32.80;99969.63;5095390;27;20027;-86
2022/12/10 12:10:25;;;;;;;0.85;0.80;;;;;;;16.71;32.73;99965.72;5115659;27;20026;-86
2022/12/10 12:12:51;;;;;;;0.93;0.57;;;;;;;16.67;32.85;99975.38;5091368;27;22300;-86
2022/12/10 12:15:39;;;;;;;0.77;0.70;;;;;;;16.63;32.59;99963.41;5099197;27;20031;-86
2022/12/10 12:18:28;;;;;;;0.98;0.77;;;;;;;16.63;32.90;99975.03;5083864;27;20035;-86
2022/12/10 12:20:57;;;;;;;0.90;0.77;;;;;;;16.69;32.81;99978.63;5091942;27;20027;-86
2022/12/10 12:24:07;;;;;;;1.15;0.80;;;;;;;16.73;32.78;99993.31;5062712;27;20106;-86
2022/12/10 12:26:36;;;;;;;1.63;0.90;;;;;;;16.67;32.73;99992.34;4992585;28;20561;-86
2022/12/10 12:29:25;;;;;;;0.90;0.90;;;;;;;16.65;32.61;99993.66;5073481;27;20044;-86
2022/12/10 12:31:59;;;;;;;2.00;0.93;;;;;;;16.57;32.72;99984.03;5049756;28;20093;-86
2022/12/10 12:34:41;;;;;;;1.10;0.77;;;;;;;16.65;32.68;100004.47;5042462;28;20099;-86
2022/12/10 12:37:09;;;;;;;1.08;0.98;;;;;;;16.63;32.85;99999.31;5052377;28;20036;-86
2022/12/10 12:39:56;;;;;;;0.95;0.75;;;;;;;16.68;32.63;100010.19;5051961;28;20078;-86
2022/12/10 12:42:25;;;;;;;0.80;0.73;;;;;;;16.65;32.80;100005.28;5063398;28;20024;-86
2022/12/10 12:45:12;;;;;;;1.08;0.77;;;;;;;16.72;32.98;100010.53;5059695;28;20035;-86
2022/12/10 12:48:02;;;;;;;0.73;0.65;;;;;;;16.73;32.79;100009.50;5064148;28;20424;-86
2022/12/10 12:50:33;;;;;;;0.77;0.60;;;;;;;16.65;32.89;100010.66;5069181;28;20035;-86
2022/12/10 12:52:59;;;;;;;1.75;0.75;;;;;;;16.51;32.97;99995.81;5025818;28;20027;-86
2022/12/10 12:56:10;;;;;;;1.25;0.70;;;;;;;16.69;32.91;100001.06;5054687;28;20392;-86
2022/12/10 12:59:00;;;;;;;1.50;0.98;;;;;;;16.64;32.99;100014.44;5031460;28;20058;-86
2022/12/10 13:01:43;;;;;;;1.23;0.90;;;;;;;16.63;32.60;100012.78;5052815;28;20373;-86
2022/12/10 13:04:10;;;;;;;0.77;0.70;;;;;;;16.67;32.95;100013.94;5064431;28;20276;-86
2022/12/10 13:06:37;;;;;;;0.70;0.65;;;;;;;16.68;32.87;100010.19;5039196;28;20481;-86
2022/12/10 13:09:14;;;;;;;0.77;0.77;;;;;;;16.69;32.94;100014.56;5041370;28;20051;-86
2022/12/10 13:11:44;;;;;;;1.20;1.00;;;;;;;16.68;32.65;100009.38;5070563;28;20107;-86
2022/12/10 13:14:11;;;;;;;0.75;0.70;;;;;;;16.69;32.76;100017.25;5041597;28;20020;-86
2022/12/10 13:16:46;;;;;;;0.95;0.80;;;;;;;16.79;32.68;100029.31;5044713;28;20040;-86
2022/12/10 13:19:20;;;;;;;1.90;0.85;;;;;;;16.67;32.89;100029.31;5065863;28;20147;-86
2022/12/10 13:21:59;;;;;;;0.80;0.70;;;;;;;16.71;32.85;100030.47;5069629;28;20036;-86
2022/12/10 13:24:37;;;;;;;0.90;0.60;;;;;;;16.70;32.86;100040.47;5064533;28;20034;-85
2022/12/10 13:27:09;;;;;;;0.70;0.60;;;;;;;16.68;32.71;100037.19;5060226;28;20027;-86
2022/12/10 13:29:45;;;;;;;1.02;0.80;;;;;;;16.73;32.47;100036.47;5095107;28;20043;-86
2022/12/10 13:32:31;;;;;;;0.75;0.70;;;;;;;16.81;32.68;100041.50;5073500;28;20031;-86
2022/12/10 13:35:22;;;;;;;1.60;0.90;;;;;;;16.76;32.73;100044.09;5095700;28;20399;-86
2022/12/10 13:38:18;;;;;;;0.70;0.70;;;;;;;16.75;32.83;100049.72;5082297;28;20042;-86
2022/12/10 13:46:31;;;;;;;1.00;0.70;;;;;;;16.74;32.72;100046.19;5110356;28;20575;-85
2022/12/10 13:49:04;;;;;;;1.80;0.70;;;;;;;16.66;33.05;100050.09;5090857;28;20055;-85
2022/12/10 13:51:38;;;;;;;1.00;0.55;;;;;;;16.77;32.73;100055.72;5068834;28;20066;-86
2022/12/10 13:54:19;;;;;;;0.88;0.80;;;;;;;16.77;32.75;100053.03;5103245;28;20111;-86
2022/12/10 13:57:27;;;;;;;1.30;0.70;;;;;;;16.81;32.72;100054.19;5084451;28;20487;-85
2022/12/10 14:00:04;;;;;;;0.65;0.60;;;;;;;16.82;32.60;100063.91;5101009;28;20035;-86
2022/12/10 14:02:44;;;;;;;0.90;0.77;;;;;;;16.82;32.59;100063.91;5109143;28;20252;-85
2022/12/10 14:05:20;;;;;;;1.13;0.90;;;;;;;16.81;32.63;100064.97;5120436;27;20027;-86
2022/12/10 14:07:47;;;;;;;0.80;0.50;;;;;;;16.77;32.70;100066.50;5105640;27;20019;-86
2022/12/10 14:10:15;;;;;;;1.02;0.80;;;;;;;16.80;32.61;100072.25;5064451;27;20031;-86
2022/12/10 14:12:41;;;;;;;0.88;0.60;;;;;;;16.77;32.66;100066.50;5072857;27;20077;-86
2022/12/10 14:15:08;;;;;;;0.73;0.55;;;;;;;16.79;32.64;100070.59;5082912;27;20027;-86
2022/12/10 14:17:38;;;;;;;0.80;0.57;;;;;;;16.82;32.80;100082.81;5094775;27;20027;-86
2022/12/10 14:20:06;;;;;;;0.70;0.68;;;;;;;16.80;32.59;100071.41;5073996;27;20027;-86
2022/12/10 14:22:39;;;;;;;1.23;0.70;;;;;;;16.81;32.66;100073.06;5071829;27;20062;-86
2022/12/10 14:25:09;;;;;;;1.00;0.70;;;;;;;16.72;32.90;100064.50;5084169;27;20027;-86
2022/12/10 14:27:35;;;;;;;0.60;0.60;;;;;;;16.79;32.59;100077.88;5070825;27;20028;-85
2022/12/10 14:30:24;;;;;;;1.05;0.70;;;;;;;16.76;32.69;100072.94;5062032;27;20391;-86
2022/12/10 14:32:50;;;;;;;0.65;0.60;;;;;;;16.84;32.55;100078.84;5082184;27;20050;-85
2022/12/10 14:35:21;;;;;;;0.60;0.60;;;;;;;16.81;32.53;100078.47;5090339;27;20023;-85
2022/12/10 14:37:47;;;;;;;0.98;0.80;;;;;;;16.82;32.53;100072.84;5092516;27;20024;-86
2022/12/10 14:40:25;;;;;;;0.95;0.60;;;;;;;16.86;32.48;100084.00;5079490;27;20386;-85
2022/12/10 14:42:51;;;;;;;0.85;0.80;;;;;;;16.84;32.63;100094.22;5055256;28;20507;-86
2022/12/10 14:45:16;;;;;;;0.60;0.50;;;;;;;16.79;32.54;100086.78;5061358;27;20055;-86
2022/12/10 14:47:42;;;;;;;0.70;0.50;;;;;;;16.80;32.58;100091.16;5103223;27;20031;-86
2022/12/10 14:50:14;;;;;;;0.57;0.50;;;;;;;16.80;32.66;100085.75;5070634;27;20499;-86
2022/12/10 14:52:44;;;;;;;0.82;0.57;;;;;;;16.82;32.55;100080.94;5065256;28;20536;-86
2022/12/10 14:55:19;;;;;;;0.60;0.60;;;;;;;16.80;32.66;100087.59;5081113;27;20063;-86
2022/12/10 14:57:59;;;;;;;1.33;0.60;;;;;;;16.79;32.62;100091.38;5077203;28;20050;-86
2022/12/10 15:00:25;;;;;;;1.83;0.65;;;;;;;16.81;32.63;100089.25;5068208;28;20023;-86
2022/12/10 15:02:54;;;;;;;0.82;0.65;;;;;;;16.84;32.58;100094.22;5081778;27;20016;-85
2022/12/10 15:05:30;;;;;;;0.55;0.50;;;;;;;16.80;32.88;100098.41;5102794;27;20015;-86
2022/12/10 15:08:06;;;;;;;0.77;0.60;;;;;;;16.73;32.41;100086.91;5086382;27;20062;-86
2022/12/10 15:10:33;;;;;;;1.45;0.80;;;;;;;16.80;32.54;100093.84;5079980;27;20023;-86
2022/12/10 15:12:59;;;;;;;1.08;0.80;;;;;;;16.82;32.58;100091.72;5097161;27;20024;-86
2022/12/10 15:15:32;;;;;;;1.08;0.65;;;;;;;16.89;32.56;100099.72;5068671;28;20107;-86
2022/12/10 15:18:10;;;;;;;0.63;0.60;;;;;;;16.88;32.27;100101.63;5073817;27;20035;-86
2022/12/10 15:20:50;;;;;;;0.80;0.80;;;;;;;16.80;32.60;100093.84;5086705;27;20494;-86
2022/12/10 15:23:23;;;;;;;0.63;0.57;;;;;;;16.82;32.52;100099.00;5083055;28;20035;-86
2022/12/10 15:26:10;;;;;;;0.60;0.60;;;;;;;16.78;32.59;100079.78;5082324;27;20024;-86
2022/12/10 15:28:37;;;;;;;0.85;0.60;;;;;;;16.86;32.40;100092.91;5067335;27;20649;-86
2022/12/10 15:31:24;;;;;;;1.55;0.60;;;;;;;16.86;32.61;100097.50;5076931;27;20088;-86
2022/12/10 15:33:58;;;;;;;0.82;0.80;;;;;;;16.87;32.53;100099.16;5120307;27;20029;-86
2022/12/10 15:36:35;;;;;;;0.70;0.70;;;;;;;16.88;32.46;100100.78;5072871;27;20448;-86
2022/12/10 15:39:04;;;;;;;0.80;0.75;;;;;;;16.88;32.50;100109.72;5101208;27;20035;-86
2022/12/10 15:41:48;;;;;;;1.17;0.80;;;;;;;16.88;32.47;100106.19;5077245;27;20035;-86
2022/12/10 15:44:32;;;;;;;0.60;0.60;;;;;;;16.89;32.58;100102.44;5120351;27;20042;-86
2022/12/10 15:47:02;;;;;;;1.65;1.02;;;;;;;16.88;32.53;100100.78;5105026;27;20368;-86
2022/12/10 15:49:31;;;;;;;0.80;0.80;;;;;;;16.88;32.62;100101.63;5108623;27;20401;-86
2022/12/10 15:51:56;;;;;;;0.63;0.63;;;;;;;16.86;32.72;100102.91;5080778;27;20086;-86
2022/12/10 15:54:23;;;;;;;0.75;0.70;;;;;;;16.84;32.65;100102.31;5090721;27;20500;-86
2022/12/10 15:56:49;;;;;;;1.02;0.80;;;;;;;16.84;32.63;100102.31;5104096;27;20328;-86
2022/12/10 15:59:14;;;;;;;0.88;0.70;;;;;;;16.80;32.58;100098.41;5092674;27;20550;-86
2022/12/10 16:01:40;;;;;;;0.95;0.70;;;;;;;16.81;32.56;100097.34;5078340;27;20076;-86
2022/12/10 16:04:06;;;;;;;0.98;0.70;;;;;;;16.84;32.44;100102.31;5088392;27;20068;-86
2022/12/10 16:06:34;;;;;;;0.70;0.70;;;;;;;16.93;32.30;100102.78;5101434;27;20019;-86
2022/12/10 16:09:00;;;;;;;0.70;0.70;;;;;;;16.86;32.59;100102.91;5084483;27;20550;-86
2022/12/10 16:11:25;;;;;;;0.75;0.63;;;;;;;16.84;32.41;100099.63;5081435;27;20027;-86
2022/12/10 16:13:52;;;;;;;0.75;0.70;;;;;;;16.88;32.52;100095.38;5109379;27;20057;-86
2022/12/10 16:16:18;;;;;;;1.08;0.80;;;;;;;16.85;32.51;100096.69;5087500;27;20027;-86
2022/12/10 16:18:45;;;;;;;0.75;0.70;;;;;;;16.82;32.59;100096.31;5103529;27;20027;-86
2022/12/10 16:21:11;;;;;;;0.80;0.77;;;;;;;16.83;32.71;100087.97;5055197;27;20031;-86
2022/12/10 16:23:38;;;;;;;1.05;0.90;;;;;;;16.87;32.45;100088.34;5086422;27;20289;-86
2022/12/10 16:26:15;;;;;;;0.93;0.65;;;;;;;16.88;32.34;100089.97;5070934;27;20024;-86
2022/12/10 16:28:41;;;;;;;0.60;0.60;;;;;;;16.84;32.79;100089.63;5093849;27;20079;-86
2022/12/10 16:31:09;;;;;;;0.70;0.70;;;;;;;16.90;32.57;100098.66;5090806;27;20023;-86
2022/12/10 16:33:35;;;;;;;1.05;0.80;;;;;;;16.85;32.47;100095.84;5072113;27;20232;-86
2022/12/10 16:36:02;;;;;;;2.00;1.00;;;;;;;16.88;32.33;100092.69;5090415;27;20456;-86
2022/12/10 16:38:27;;;;;;;1.20;0.80;;;;;;;16.85;32.39;100101.25;5104463;27;20034;-86
2022/12/10 16:40:53;;;;;;;0.82;0.60;;;;;;;16.94;32.25;100109.84;5086897;27;20023;-86
2022/12/10 16:43:24;;;;;;;0.80;0.70;;;;;;;16.85;32.47;100091.28;5087216;27;20025;-86
2022/12/10 16:45:49;;;;;;;1.95;0.77;;;;;;;16.84;32.46;100097.72;5078402;27;20075;-86
2022/12/10 16:48:15;;;;;;;0.85;0.60;;;;;;;16.81;32.44;100081.97;5086935;28;20031;-86
2022/12/10 16:50:41;;;;;;;1.00;0.88;;;;;;;16.84;32.42;100092.34;5090898;27;20067;-86
2022/12/10 16:53:18;;;;;;;0.73;0.68;;;;;;;16.85;32.62;100096.69;5090254;27;20458;-86
2022/12/10 16:55:44;;;;;;;1.02;0.70;;;;;;;16.85;32.51;100095.84;5081551;27;20502;-86
2022/12/10 16:58:14;;;;;;;1.30;0.98;;;;;;;16.88;32.24;100085.44;5088712;27;20031;-86
2022/12/10 17:01:00;;;;;;;1.48;0.63;;;;;;;16.86;32.56;100079.41;5069801;27;20036;-86
2022/12/10 17:03:28;;;;;;;1.38;0.80;;;;;;;16.89;32.33;100081.66;5091502;27;20294;-86
2022/12/10 17:05:58;;;;;;;1.50;0.80;;;;;;;16.87;32.41;100078.38;5074404;27;20027;-87
2022/12/10 17:08:24;;;;;;;0.73;0.73;;;;;;;16.91;32.47;100083.31;5065969;28;20031;-86
2022/12/10 17:13:34;;;;;;;;;;;;;;;16.90;32.39;100098.66;5093536;27;20375;-86
2022/12/10 17:16:00;;;;;;;0.65;0.60;;;;;;;16.92;32.32;100091.16;5104509;27;19916;-87
2022/12/10 17:18:25;;;;;;;1.13;0.70;;;;;;;16.90;32.62;100098.66;5074048;28;20032;-86
2022/12/10 17:20:51;;;;;;;0.60;0.60;;;;;;;16.95;32.35;100095.25;5088542;28;20536;-87
2022/12/10 17:23:17;;;;;;;1.88;0.90;;;;;;;16.92;32.45;100107.38;5070945;28;20412;-86
2022/12/10 17:25:43;;;;;;;0.90;0.70;;;;;;;16.88;32.39;100100.78;5104082;28;20152;-86
2022/12/10 17:28:16;;;;;;;0.85;0.50;;;;;;;16.93;32.39;100103.59;5073100;28;20080;-86
2022/12/10 17:30:42;;;;;;;1.33;0.73;;;;;;;16.94;32.07;100107.94;5069383;28;20392;-87
2022/12/10 17:33:14;;;;;;;1.17;0.65;;;;;;;16.92;32.38;100109.22;5042555;28;20032;-86
2022/12/10 17:35:44;;;;;;;1.02;0.70;;;;;;;16.88;32.45;100116.97;5058435;28;20571;-87
2022/12/10 17:38:20;;;;;;;0.68;0.60;;;;;;;16.89;32.27;100102.44;5059241;28;20135;-87
2022/12/10 17:40:46;;;;;;;0.80;0.63;;;;;;;16.91;32.38;100113.81;5062121;28;20115;-87
2022/12/10 17:43:11;;;;;;;0.95;0.65;;;;;;;16.86;32.51;100106.41;5046675;28;20039;-86
2022/12/10 17:45:37;;;;;;;0.82;0.60;;;;;;;16.88;32.38;100108.88;5079310;28;20495;-87
2022/12/10 17:48:05;;;;;;;0.98;0.70;;;;;;;16.91;32.29;100110.28;5059977;28;20061;-86
2022/12/10 17:50:33;;;;;;;0.70;0.65;;;;;;;16.93;32.30;100114.38;5062650;28;20035;-86
2022/12/10 17:53:14;;;;;;;0.70;0.65;;;;;;;16.89;32.38;100116.75;5044983;28;20028;-86
2022/12/10 17:55:39;;;;;;;0.70;0.60;;;;;;;16.83;32.55;100119.53;5075088;28;20024;-86
2022/12/10 17:58:05;;;;;;;0.88;0.73;;;;;;;16.89;32.61;100114.03;5046627;28;20522;-86
2022/12/10 18:00:35;;;;;;;1.48;0.60;;;;;;;16.93;32.32;100102.78;5044157;28;20034;-86
2022/12/10 18:03:01;;;;;;;1.10;0.70;;;;;;;16.95;32.43;100114.16;5041009;28;20023;-87
2022/12/10 18:05:26;;;;;;;1.40;0.50;;;;;;;16.91;32.29;100110.28;5063270;28;20032;-86
2022/12/10 18:07:53;;;;;;;0.63;0.55;;;;;;;16.92;32.39;100111.91;5046145;28;20046;-86
2022/12/10 18:10:26;;;;;;;0.68;0.60;;;;;;;16.92;32.67;100109.22;5042255;28;20032;-87
2022/12/10 18:12:55;;;;;;;0.70;0.70;;;;;;;16.88;32.47;100112.41;5060809;28;20032;-86
2022/12/10 18:15:22;;;;;;;0.98;0.60;;;;;;;16.87;32.55;100116.16;5062992;28;20035;-87
2022/12/10 18:17:47;;;;;;;0.75;0.60;;;;;;;16.90;32.31;100114.84;5045988;28;20557;-86
2022/12/10 18:20:23;;;;;;;0.60;0.60;;;;;;;16.90;32.33;100114.84;5062048;28;20131;-86
2022/12/10 18:22:50;;;;;;;0.50;0.50;;;;;;;16.91;32.48;100107.59;5060985;28;20063;-86
2022/12/10 18:25:16;;;;;;;1.50;0.70;;;;;;;16.89;32.37;100115.94;5046799;28;20044;-86
2022/12/10 18:27:41;;;;;;;0.70;0.60;;;;;;;16.96;32.24;100118.50;5080228;28;20020;-86
2022/12/10 18:30:09;;;;;;;0.47;0.47;;;;;;;16.92;32.30;100107.38;5063302;27;20078;-86
2022/12/10 18:32:35;;;;;;;0.70;0.60;;;;;;;16.97;32.28;100112.88;5071883;27;20024;-86
2022/12/10 18:35:01;;;;;;;0.60;0.60;;;;;;;16.95;32.34;100117.66;5089790;27;20107;-86
2022/12/10 18:37:26;;;;;;;1.23;0.68;;;;;;;16.94;32.37;100115.22;5062900;27;20111;-86
2022/12/10 18:39:52;;;;;;;0.68;0.60;;;;;;;16.90;32.36;100104.06;5082305;28;20084;-86
2022/12/10 18:42:18;;;;;;;0.80;0.68;;;;;;;16.88;32.50;100112.41;5076573;27;20023;-86
2022/12/10 18:44:47;;;;;;;0.65;0.60;;;;;;;16.94;32.44;100110.63;5070909;27;20070;-86
2022/12/10 18:47:13;;;;;;;0.70;0.70;;;;;;;16.90;32.37;100120.25;5103877;27;20033;-86
2022/12/10 18:49:39;;;;;;;0.70;0.70;;;;;;;16.92;32.26;100112.75;5065038;27;20031;-86
2022/12/10 18:52:04;;;;;;;0.57;0.57;;;;;;;16.90;32.30;100106.75;5085112;27;20122;-86
2022/12/10 18:54:30;;;;;;;0.75;0.60;;;;;;;16.85;32.44;100112.03;5067261;27;20092;-86
2022/12/10 18:56:59;;;;;;;0.60;0.60;;;;;;;16.88;32.38;100111.56;5081422;27;20093;-86
2022/12/10 18:59:24;;;;;;;1.33;0.60;;;;;;;16.89;32.37;100115.94;5098931;27;20031;-86
2022/12/10 19:01:50;;;;;;;0.63;0.60;;;;;;;16.95;32.25;100123.06;5083539;27;20028;-86
2022/12/10 19:04:16;;;;;;;0.40;0.40;;;;;;;16.91;32.38;100116.50;5079210;27;20119;-87
2022/12/10 19:06:43;;;;;;;0.68;0.60;;;;;;;16.88;32.37;100111.56;5083012;27;20514;-86
2022/12/10 19:09:14;;;;;;;0.77;0.60;;;;;;;16.97;32.28;100123.66;5071211;27;20039;-86
2022/12/10 19:11:40;;;;;;;0.50;0.50;;;;;;;16.86;32.41;100114.50;5086134;27;20078;-86
2022/12/10 19:14:05;;;;;;;0.57;0.50;;;;;;;16.93;32.28;100130.59;5065672;28;20481;-86
2022/12/10 19:16:35;;;;;;;0.65;0.50;;;;;;;16.90;32.41;100131.03;5061020;27;20031;-86
2022/12/10 19:19:01;;;;;;;0.75;0.50;;;;;;;16.89;32.46;100138.34;5075223;27;20063;-86
2022/12/10 19:21:27;;;;;;;0.70;0.60;;;;;;;16.89;32.44;100129.44;5071575;27;20296;-86
2022/12/10 19:23:53;;;;;;;0.70;0.60;;;;;;;16.90;32.60;100141.84;5073155;27;20244;-86
2022/12/10 19:26:27;;;;;;;0.70;0.60;;;;;;;16.89;32.52;100141.03;5082713;28;20035;-86
2022/12/10 19:28:53;;;;;;;0.77;0.63;;;;;;;16.91;32.53;100148.09;5071312;28;20048;-86
2022/12/10 19:31:19;;;;;;;0.50;0.50;;;;;;;16.84;32.56;100137.41;5041964;28;20047;-86
2022/12/10 19:33:47;;;;;;;0.68;0.52;;;;;;;16.92;32.32;100139.75;5059223;28;20044;-86
2022/12/10 19:36:17;;;;;;;0.60;0.60;;;;;;;16.93;32.47;100145.97;5070756;28;20926;-86
2022/12/10 19:38:45;;;;;;;0.82;0.73;;;;;;;16.92;32.51;100144.31;5038305;28;20376;-86
2022/12/10 19:41:12;;;;;;;1.35;0.60;;;;;;;16.92;32.36;100144.31;5041898;28;20127;-86
2022/12/10 19:43:37;;;;;;;0.65;0.60;;;;;;;16.91;32.64;100146.19;5044594;28;20484;-86
2022/12/10 19:46:13;;;;;;;0.55;0.55;;;;;;;16.93;32.45;100154.06;5035305;28;21482;-86
2022/12/10 19:48:39;;;;;;;1.75;0.82;;;;;;;16.92;32.45;100155.94;5066138;28;20024;-86
2022/12/10 19:51:05;;;;;;;1.02;0.55;;;;;;;16.83;32.50;100158.16;5053357;28;20032;-87
2022/12/10 19:53:31;;;;;;;0.60;0.57;;;;;;;16.91;32.76;100161.56;5036363;28;20028;-86
2022/12/10 19:55:56;;;;;;;0.63;0.60;;;;;;;16.91;32.59;100159.69;5052344;28;20474;-86
2022/12/10 19:58:22;;;;;;;0.93;0.50;;;;;;;16.91;32.56;100156.19;5041282;28;20488;-86
2022/12/10 20:00:47;;;;;;;0.50;0.50;;;;;;;16.84;32.58;100159.00;5050641;28;20027;-86
2022/12/10 20:03:13;;;;;;;0.60;0.60;;;;;;;16.91;32.40;100169.69;5069300;28;20051;-86
2022/12/10 20:05:39;;;;;;;0.90;0.55;;;;;;;16.83;32.52;100149.22;5061612;28;20476;-86
2022/12/10 20:08:05;;;;;;;0.50;0.50;;;;;;;16.89;32.42;100157.22;5053782;28;20034;-86
2022/12/10 20:10:31;;;;;;;0.90;0.60;;;;;;;16.88;32.41;100170.94;5042173;28;20139;-86
2022/12/10 20:12:59;;;;;;;1.00;0.80;;;;;;;16.93;32.62;100167.56;5071683;28;20504;-86
2022/12/10 20:15:25;;;;;;;1.23;0.60;;;;;;;16.92;32.55;100169.44;5053209;28;20725;-79
2022/12/10 20:18:06;;;;;;;1.05;0.80;;;;;;;16.79;33.35;100166.94;5070372;28;20020;-91
2022/12/10 20:20:31;;;;;;;0.63;0.55;;;;;;;16.80;33.11;100163.16;5055382;28;20024;-86
2022/12/10 20:22:57;;;;;;;0.90;0.80;;;;;;;16.85;32.83;100160.63;5073637;28;20024;-86
2022/12/10 20:25:23;;;;;;;0.68;0.65;;;;;;;16.87;32.50;100156.66;5065138;28;20112;-85
2022/12/10 20:27:54;;;;;;;0.90;0.60;;;;;;;17.02;32.42;100177.78;5039374;28;20504;-86
2022/12/10 20:30:22;;;;;;;0.50;0.50;;;;;;;17.04;32.03;100174.81;5061149;27;20478;-86
2022/12/10 20:32:50;;;;;;;3.22;0.60;;;;;;;16.98;32.40;100167.69;5081629;28;20031;-86
2022/12/10 20:35:16;;;;;;;1.05;0.60;;;;;;;17.03;32.19;100181.28;5068373;27;20018;-86
2022/12/10 20:37:41;;;;;;;2.60;0.63;;;;;;;16.92;32.25;100155.94;5068830;27;20019;-86
2022/12/10 20:40:10;;;;;;;0.68;0.55;;;;;;;16.91;32.37;100165.09;5105109;27;20491;-86
2022/12/10 20:42:35;;;;;;;1.20;0.60;;;;;;;16.94;32.53;100170.03;5065349;28;20031;-86
2022/12/10 20:45:02;;;;;;;0.73;0.70;;;;;;;16.94;32.37;100180.81;5062463;28;20020;-86
2022/12/10 20:47:27;;;;;;;2.72;0.70;;;;;;;17.02;32.44;100179.63;5073378;28;20480;-86
2022/12/10 20:49:53;;;;;;;0.82;0.65;;;;;;;16.96;32.24;100175.19;5081997;28;20045;-86
2022/12/10 20:52:19;;;;;;;0.63;0.63;;;;;;;17.01;32.38;100192.31;5076982;27;20026;-86
2022/12/10 20:54:47;;;;;;;0.80;0.70;;;;;;;16.95;32.30;100182.44;5060590;28;20476;-85
2022/12/10 20:57:13;;;;;;;1.02;0.50;;;;;;;17.06;32.37;100194.31;5070753;28;20118;-85
2022/12/10 20:59:39;;;;;;;0.60;0.60;;;;;;;16.95;32.29;100187.03;5080892;27;20439;-86
2022/12/10 21:02:05;;;;;;;0.52;0.52;;;;;;;17.01;32.42;100196.91;5061217;28;20072;-85
2022/12/10 21:04:31;;;;;;;0.55;0.45;;;;;;;17.03;32.40;100187.50;5079045;28;20422;-85
2022/12/10 21:06:56;;;;;;;0.80;0.60;;;;;;;16.98;32.41;100190.09;5090128;27;20041;-86
2022/12/10 21:09:22;;;;;;;1.45;0.63;;;;;;;17.03;32.49;100198.31;5084722;28;20539;-86
2022/12/10 21:11:50;;;;;;;0.57;0.57;;;;;;;16.94;32.79;100205.13;5097063;28;20402;-88
2022/12/10 21:14:16;;;;;;;0.90;0.60;;;;;;;16.80;32.75;100184.75;5090674;27;20073;-86
2022/12/10 21:16:42;;;;;;;0.60;0.60;;;;;;;16.93;32.53;100208.88;5093909;27;20416;-86
2022/12/10 21:19:09;;;;;;;1.45;0.77;;;;;;;17.08;32.44;100209.22;5083296;28;20051;-86
2022/12/10 21:21:35;;;;;;;0.75;0.75;;;;;;;17.13;32.31;100210.41;5083767;28;20094;-86
2022/12/10 21:24:00;;;;;;;1.73;0.70;;;;;;;17.14;32.13;100207.44;5079336;28;20038;-86